Nearby METAR Reports

 

EIDW - Dublin Airport, Ireland
Distance from station: ENE 79km
Updated: 01/04/2020 01:30
Mostly cloudy
Mostly cloudy
 Wind from NNW
Wind: NNW 13 km/h
Temperature: 6°C
Wind Chill: 3°C
Dew Point: 1°C
Humidity: 71%
Barometer: 1031 hPa
Clouds: Mostly cloudy
Visibility: 10 km
Cloud details: Few Clouds 762 m
Mostly cloudy 1219 m
2020/04/01 00:30 EIDW 010030Z 34007KT 9999 FEW025 BKN040 06/01 Q1031 NOSIG
EIME - Casement (mil), Ireland
Distance from station: ENE 62km
Updated: 01/04/2020 01:00
Mostly cloudy
Mostly cloudy
 Wind from N
Wind: N 9 km/h
Temperature: 7°C
Wind Chill: 6°C
Dew Point: 1°C
Humidity: 66%
Barometer: 1031 hPa
Clouds: Mostly cloudy
Visibility: 10 km
Cloud details: Few Clouds 1036 m
Mostly cloudy 1158 m
2020/04/01 00:00 EIME 010000Z 01005KT 330V050 9999 FEW034 BKN038 07/01 Q1031
EIWF - Waterford Arpt, Ireland
Distance from station: S 111km
Updated: 31/03/2020 20:30
NOT Current
Mostly cloudy
Mostly cloudy
 Wind from E
Wind: E 11 km/h
Temperature: 7°C
Wind Chill: 5°C
Dew Point: 2°C
Humidity: 71%
Barometer: 1032 hPa
Clouds: Mostly cloudy
Visibility: 10 km
Cloud details: Mostly cloudy 1158 m
2020/03/31 19:30 EIWF 311930Z 08006KT 9999 BKN038 07/02 Q1032
 
EINN - Shannon Airport, Ireland
Distance from station: WSW 117km
Updated: 01/04/2020 01:30
Mostly cloudy
Mostly cloudy
 Wind from N
Wind: N 11 km/h
Temperature: 7°C
Wind Chill: 5°C
Dew Point: 3°C
Humidity: 76%
Barometer: 1032 hPa
Clouds: Mostly cloudy
Visibility: 10 km
Cloud details: Few Clouds 914 m
Mostly cloudy 1219 m
2020/04/01 00:30 EINN 010030Z 36006KT 9999 FEW030 BKN040 07/03 Q1032 NOSIG
EIKN - Connaught Apt, Ireland
Distance from station: NW 127km
Updated: 30/03/2020 15:30
NOT Current
Mostly cloudy
Mostly cloudy
 Wind from N
Wind: N 30 km/h
Temperature: 8°C
Wind Chill: 4°C
Dew Point: 5°C
Humidity: 82%
Barometer: 1040 hPa
Clouds: Mostly cloudy
Visibility: 10 km
Cloud details: Few Clouds 732 m
Mostly cloudy 1097 m
2020/03/30 14:30 EIKN 301430Z 36016KT 9999 FEW024 BKN036 08/05 Q1040
EISG - Sligo Arpt, Ireland
Distance from station: NNW 148km
Updated: 31/03/2020 19:00
NOT Current
Partly cloudy
Partly cloudy
 Wind from NNW
Wind: NNW 19 km/h
Temperature: 8°C
Wind Chill: 4°C
Dew Point: 6°C
Humidity: 87%
Barometer: 1035 hPa
Clouds: Partly cloudy
Visibility: 10 km
Cloud details: Partly cloudy 1219 m
2020/03/31 18:00 EISG 311800Z 33010KT 9999 SCT040 08/06 Q1035
 
EICK - Cork Arpt/Corcai, Ireland
Distance from station: SSW 165km
Updated: 01/04/2020 01:30
Mostly cloudy
Mostly cloudy
 Wind from N
Wind: N 11 km/h
Temperature: 6°C
Wind Chill: 4°C
Dew Point: 1°C
Humidity: 71%
Barometer: 1031 hPa
Clouds: Mostly cloudy
Visibility: 10 km
Cloud details: Mostly cloudy 1189 m
2020/04/01 00:30 EICK 010030Z 36006KT 9999 BKN039 06/01 Q1031 NOSIG
EGAA - Belfast/Aldergro, United Kingdom
Distance from station: NNE 179km
Updated: 01/04/2020 01:20
Mostly cloudy
Mostly cloudy
 Wind from WNW
Wind: WNW 7 km/h
Temperature: 6°C
Wind Chill: 4°C
Dew Point: 4°C
Humidity: 87%
Barometer: 1031 hPa
Clouds: Mostly cloudy
Visibility: 10 km
Cloud details: Mostly cloudy 1219 m
2020/04/01 00:20 EGAA 010020Z 29004KT 9999 BKN040 06/04 Q1031
EIKY - Kerry Arpt, Ireland
Distance from station: SW 182km
Updated: 31/03/2020 17:30
NOT Current
Mostly cloudy
Mostly cloudy
 Wind from NE
Wind: NE 11 km/h
Temperature: 11°C
Dew Point: 3°C
Humidity: 58%
Barometer: 1033 hPa
Clouds: Mostly cloudy
Visibility: 10 km
Cloud details: Mostly cloudy 1189 m
Mostly cloudy 1494 m
2020/03/31 16:30 EIKY 311630Z 04006KT 330V110 9999 BKN039 BKN049 11/03 Q1033
 
EGAC - Belfast Harbour, United Kingdom
Distance from station: NNE 188km
Updated: 01/04/2020 01:20
Overcast
Overcast
 Wind from NW
Wind: NW 13 km/h
Temperature: 7°C
Wind Chill: 5°C
Dew Point: 3°C
Humidity: 76%
Barometer: 1030 hPa
Clouds: Overcast
Visibility: 10 km
Cloud details: Overcast 1402 m
2020/04/01 00:20 EGAC 010020Z AUTO 31007KT 280V340 9999 OVC046/// 07/03 Q1030
EGOV - Valley Raf, United Kingdom
Distance from station: E 188km
Updated: 01/04/2020 00:50
Overcast
Overcast
 Wind from NNW
Wind: NNW 9 km/h
Temperature: 7°C
Wind Chill: 6°C
Dew Point: 2°C
Humidity: 71%
Barometer: 1030 hPa
Clouds: Overcast
Visibility: 10 km
Cloud details: Overcast 1067 m
2020/03/31 23:50 EGOV 312350Z AUTO 34005KT 9999 OVC035/// 07/02 Q1030
EGNS - Isle Of Man/Rona, United Kingdom
Distance from station: ENE 207km
Updated: 01/04/2020 00:50
Mostly cloudy
Mostly cloudy
 Wind from NNW
Wind: NNW 15 km/h
Temperature: 7°C
Wind Chill: 4°C
Dew Point: 4°C
Humidity: 81%
Barometer: 1030 hPa
Clouds: Mostly cloudy
Visibility: 10 km
Cloud details: Few Clouds 610 m
Mostly cloudy 914 m
Mostly cloudy 1219 m
2020/03/31 23:50 EGNS 312350Z 33008KT 9999 FEW020 BKN030 BKN040 07/04 Q1030